createdAt,value
2023-04-18T00:01:59.254Z,8.85
2023-04-18T00:04:26.765Z,8.50
2023-04-18T00:06:53.925Z,8.23
2023-04-18T00:09:21.085Z,10.80
2023-04-18T00:11:48.703Z,7.28
2023-04-18T00:14:19.931Z,7.85
2023-04-18T00:16:47.789Z,8.18
2023-04-18T00:19:16.334Z,7.65
2023-04-18T00:21:45.002Z,7.95
2023-04-18T00:24:13.737Z,9.00
2023-04-18T00:26:41.512Z,7.75
2023-04-18T00:29:09.198Z,8.80
2023-04-18T00:31:36.587Z,11.90
2023-04-18T00:34:04.252Z,10.48
2023-04-18T00:36:32.390Z,9.02
2023-04-18T00:38:59.543Z,9.02
2023-04-18T00:41:28.298Z,9.90
2023-04-18T00:43:55.343Z,10.70
2023-04-18T00:46:23.093Z,9.65
2023-04-18T00:48:50.958Z,10.50
2023-04-18T00:51:18.103Z,7.88
2023-04-18T00:53:47.773Z,8.88
2023-04-18T00:56:16.974Z,10.02
2023-04-18T00:58:46.154Z,8.05
2023-04-18T01:01:13.664Z,10.63
2023-04-18T01:03:41.180Z,12.65
2023-04-18T01:06:08.960Z,10.13
2023-04-18T01:08:37.736Z,10.63
2023-04-18T01:11:06.010Z,10.68
2023-04-18T01:13:33.209Z,10.15
2023-04-18T01:16:01.376Z,9.57
2023-04-18T01:18:31.580Z,10.98
2023-04-18T01:21:00.981Z,9.45
2023-04-18T01:23:28.234Z,10.57
2023-04-18T01:25:56.068Z,10.10
2023-04-18T01:28:29.931Z,11.82
2023-04-18T01:30:57.904Z,8.65
2023-04-18T01:33:25.367Z,12.88
2023-04-18T01:35:53.229Z,11.40
2023-04-18T01:38:20.554Z,10.05
2023-04-18T01:40:47.857Z,11.23
2023-04-18T01:43:15.864Z,12.80
2023-04-18T01:45:45.184Z,10.93
2023-04-18T01:48:12.299Z,11.40
2023-04-18T01:50:39.338Z,10.77
2023-04-18T01:53:07.133Z,10.23
2023-04-18T01:55:39.393Z,11.85
2023-04-18T01:58:08.547Z,9.32
2023-04-18T02:00:36.488Z,10.82
2023-04-18T02:03:04.131Z,10.60
2023-04-18T02:05:31.207Z,11.48
2023-04-18T02:07:59.428Z,11.02
2023-04-18T02:10:26.655Z,11.63
2023-04-18T02:12:53.632Z,11.30
2023-04-18T02:15:21.054Z,12.40
2023-04-18T02:17:49.279Z,11.88
2023-04-18T02:20:17.114Z,11.00
2023-04-18T02:22:44.401Z,10.88
2023-04-18T02:25:11.457Z,11.25
2023-04-18T02:27:38.979Z,10.48
2023-04-18T02:30:07.553Z,11.57
2023-04-18T02:32:34.680Z,11.85
2023-04-18T02:35:01.932Z,12.63
2023-04-18T02:37:28.975Z,12.90
2023-04-18T02:39:57.672Z,12.73
2023-04-18T02:42:26.617Z,13.55
2023-04-18T02:44:55.091Z,14.43
2023-04-18T02:47:22.331Z,13.57
2023-04-18T02:49:50.789Z,14.95
2023-04-18T02:52:18.341Z,13.95
2023-04-18T02:54:46.841Z,14.10
2023-04-18T02:57:18.004Z,16.52
2023-04-18T02:59:45.904Z,16.42
2023-04-18T03:02:13.574Z,17.52
2023-04-18T03:04:41.867Z,16.33
2023-04-18T03:07:08.991Z,16.45
2023-04-18T03:09:36.485Z,17.90
2023-04-18T03:12:06.628Z,17.85
2023-04-18T03:14:34.457Z,21.85
2023-04-18T03:17:01.662Z,20.52
2023-04-18T03:19:32.200Z,21.27
2023-04-18T03:21:59.719Z,19.30
2023-04-18T03:24:27.138Z,19.48
2023-04-18T03:26:54.643Z,17.35
2023-04-18T03:29:21.750Z,18.75
2023-04-18T03:31:49.331Z,20.02
2023-04-18T03:34:16.834Z,20.17
2023-04-18T03:36:45.329Z,20.08
2023-04-18T03:39:13.603Z,18.95
2023-04-18T03:41:40.821Z,24.92
2023-04-18T03:44:08.021Z,19.23
2023-04-18T03:46:35.584Z,20.45
2023-04-18T03:49:02.797Z,21.27
2023-04-18T03:51:37.535Z,21.65
2023-04-18T03:54:04.470Z,21.17
2023-04-18T03:56:32.612Z,20.50
2023-04-18T03:59:00.225Z,18.98
2023-04-18T04:01:27.282Z,20.42
2023-04-18T04:03:55.015Z,18.63
2023-04-18T04:06:22.911Z,18.23
2023-04-18T04:08:50.525Z,17.27
2023-04-18T04:11:17.760Z,15.38
2023-04-18T04:13:45.177Z,18.00
2023-04-18T04:16:12.289Z,17.67
2023-04-18T04:18:39.296Z,18.67
2023-04-18T04:21:06.923Z,17.40
2023-04-18T04:23:34.427Z,20.77
2023-04-18T04:26:04.687Z,18.25
2023-04-18T04:28:31.707Z,20.00
2023-04-18T04:30:59.680Z,19.08
2023-04-18T04:33:30.044Z,19.15
2023-04-18T04:35:57.598Z,17.75
2023-04-18T04:38:25.065Z,20.58
2023-04-18T04:40:52.968Z,20.35
2023-04-18T04:43:20.705Z,24.40
2023-04-18T04:45:54.103Z,19.52
2023-04-18T04:48:22.280Z,19.48
2023-04-18T04:51:00.841Z,21.55
2023-04-18T04:53:32.194Z,21.63
2023-04-18T04:55:59.898Z,19.65
2023-04-18T04:58:27.137Z,22.67
2023-04-18T05:00:54.966Z,21.30
2023-04-18T05:03:22.814Z,22.77
2023-04-18T05:05:50.540Z,25.15
2023-04-18T05:08:17.662Z,24.40
2023-04-18T05:10:46.006Z,25.67
2023-04-18T05:13:13.279Z,26.25
2023-04-18T05:15:40.497Z,27.77
2023-04-18T05:18:07.884Z,24.85
2023-04-18T05:20:34.852Z,26.15
2023-04-18T05:23:01.864Z,27.45
2023-04-18T05:25:30.181Z,29.73
2023-04-18T05:27:57.469Z,23.92
2023-04-18T05:30:25.107Z,28.52
2023-04-18T05:32:52.113Z,25.27
2023-04-18T05:35:19.791Z,22.90
2023-04-18T05:37:47.245Z,26.80
2023-04-18T05:40:14.953Z,28.42
2023-04-18T05:42:41.991Z,27.50
2023-04-18T05:45:09.385Z,25.67
2023-04-18T05:47:36.949Z,27.88
2023-04-18T05:50:04.238Z,25.52
2023-04-18T05:52:32.728Z,23.67
2023-04-18T05:55:00.155Z,26.42
2023-04-18T05:57:27.077Z,25.73
2023-04-18T05:59:53.995Z,25.55
2023-04-18T06:02:22.956Z,24.27
2023-04-18T06:04:52.171Z,23.92
2023-04-18T06:07:19.847Z,30.63
2023-04-18T06:09:46.883Z,27.92
2023-04-18T06:12:13.890Z,27.98
2023-04-18T06:14:41.537Z,27.58
2023-04-18T06:17:10.331Z,26.23
2023-04-18T06:19:37.401Z,29.13
2023-04-18T06:22:04.470Z,27.73
2023-04-18T06:24:31.757Z,26.55
2023-04-18T06:27:00.316Z,26.55
2023-04-18T06:29:30.724Z,28.83
2023-04-18T06:31:58.188Z,25.48
2023-04-18T06:34:25.511Z,29.63
2023-04-18T06:36:52.964Z,25.42
2023-04-18T06:39:20.279Z,26.90
2023-04-18T06:41:49.894Z,27.35
2023-04-18T06:44:17.677Z,28.23
2023-04-18T06:46:45.937Z,29.08
2023-04-18T06:49:13.004Z,23.00
2023-04-18T06:51:39.924Z,25.15
2023-04-18T06:54:07.074Z,26.50
2023-04-18T06:56:36.507Z,29.08
2023-04-18T06:59:03.807Z,26.52
2023-04-18T07:01:44.298Z,28.30
2023-04-18T07:04:12.071Z,24.95
2023-04-18T07:06:39.397Z,29.05
2023-04-18T07:09:06.915Z,25.17
2023-04-18T07:11:34.211Z,27.13
2023-04-18T07:14:05.185Z,29.75
2023-04-18T07:16:32.756Z,28.80
2023-04-18T07:18:59.932Z,30.30
2023-04-18T07:21:27.667Z,23.23
2023-04-18T07:23:57.530Z,25.00
2023-04-18T07:26:27.657Z,26.58
2023-04-18T07:28:57.386Z,22.73
2023-04-18T07:31:25.958Z,25.02
2023-04-18T07:33:53.387Z,24.15
2023-04-18T07:36:20.611Z,24.08
2023-04-18T07:38:49.330Z,23.20
2023-04-18T07:41:17.053Z,25.15
2023-04-18T07:43:44.973Z,25.17
2023-04-18T07:46:12.650Z,26.05
2023-04-18T07:48:40.164Z,22.05
2023-04-18T07:51:07.164Z,22.52
2023-04-18T07:53:35.029Z,23.65
2023-04-18T07:56:02.272Z,20.35
2023-04-18T07:58:29.733Z,29.50
2023-04-18T08:00:56.871Z,22.20
2023-04-18T08:03:24.318Z,26.02
2023-04-18T08:05:52.271Z,20.52
2023-04-18T08:08:20.030Z,21.75
2023-04-18T08:10:48.393Z,22.05
2023-04-18T08:13:15.858Z,21.50
2023-04-18T08:15:43.416Z,19.95
2023-04-18T08:18:11.233Z,19.58
2023-04-18T08:20:39.102Z,19.20
2023-04-18T08:23:09.510Z,20.17
2023-04-18T08:25:41.778Z,23.33
2023-04-18T08:28:13.251Z,18.45
2023-04-18T08:30:40.656Z,19.95
2023-04-18T08:33:07.904Z,19.30
2023-04-18T08:35:35.531Z,20.10
2023-04-18T08:38:03.039Z,17.50
2023-04-18T08:40:30.561Z,17.70
2023-04-18T08:43:01.657Z,16.15
2023-04-18T08:45:29.568Z,17.48
2023-04-18T08:48:01.551Z,17.30
2023-04-18T08:50:29.322Z,17.20
2023-04-18T08:52:56.570Z,18.17
2023-04-18T08:55:24.910Z,18.58
2023-04-18T08:57:57.923Z,17.38
2023-04-18T09:00:24.929Z,19.15
2023-04-18T09:02:57.504Z,16.27
2023-04-18T09:05:27.575Z,21.10
2023-04-18T09:07:56.467Z,16.17
2023-04-18T09:10:34.775Z,18.77
2023-04-18T09:13:05.402Z,17.45
2023-04-18T09:15:33.569Z,17.00
2023-04-18T09:18:03.217Z,17.50
2023-04-18T09:20:38.380Z,17.95
2023-04-18T09:25:45.436Z,21.20
2023-04-18T09:28:29.480Z,20.92
2023-04-18T09:30:59.092Z,18.08
2023-04-18T09:33:36.600Z,20.42
2023-04-18T09:36:31.415Z,19.65
2023-04-18T09:38:58.759Z,18.60
2023-04-18T09:41:26.102Z,15.73
2023-04-18T09:44:15.331Z,17.23
2023-04-18T09:46:47.654Z,16.50
2023-04-18T09:49:17.103Z,15.98
2023-04-18T09:51:46.823Z,17.40
2023-04-18T09:54:26.208Z,15.77
2023-04-18T09:56:55.566Z,15.63
2023-04-18T09:59:47.888Z,20.38
2023-04-18T10:02:24.712Z,15.13
2023-04-18T10:04:53.248Z,15.55
2023-04-18T10:07:22.368Z,17.27
2023-04-18T10:09:49.884Z,13.60
2023-04-18T10:12:20.490Z,14.13
2023-04-18T10:14:48.483Z,13.02
2023-04-18T10:17:16.488Z,17.80
2023-04-18T10:19:46.155Z,23.48
2023-04-18T10:22:13.754Z,15.55
2023-04-18T10:24:56.306Z,14.07
2023-04-18T10:27:49.716Z,14.02
2023-04-18T10:30:21.703Z,15.32
2023-04-18T10:32:50.912Z,13.88
2023-04-18T10:35:22.013Z,13.25
2023-04-18T10:37:52.541Z,14.93
2023-04-18T10:40:36.232Z,13.88
2023-04-18T10:43:03.411Z,13.27
2023-04-18T10:45:35.628Z,13.93
2023-04-18T10:48:24.636Z,13.88
2023-04-18T10:51:20.624Z,12.32
2023-04-18T10:53:55.080Z,15.98
2023-04-18T10:56:22.634Z,12.80
2023-04-18T10:58:53.758Z,13.15
2023-04-18T11:01:31.713Z,12.60
2023-04-18T11:04:00.983Z,13.85
2023-04-18T11:06:29.203Z,13.02
2023-04-18T11:09:13.933Z,12.43
2023-04-18T11:11:42.066Z,15.53
2023-04-18T11:14:11.012Z,11.52
2023-04-18T11:16:39.173Z,13.13
2023-04-18T11:19:26.119Z,12.13
2023-04-18T11:22:02.252Z,13.13
2023-04-18T11:24:30.048Z,11.95
2023-04-18T11:26:57.448Z,11.63
2023-04-18T11:29:25.058Z,13.10
2023-04-18T11:31:56.832Z,11.82
2023-04-18T11:34:32.222Z,12.75
2023-04-18T11:36:59.541Z,11.25
2023-04-18T11:39:26.608Z,11.80
2023-04-18T11:41:56.382Z,12.63
2023-04-18T11:44:25.841Z,11.75
2023-04-18T11:46:54.150Z,10.57
2023-04-18T11:49:33.167Z,11.13
2023-04-18T11:52:01.624Z,7.70
2023-04-18T11:54:43.199Z,10.15
2023-04-18T11:57:32.835Z,9.40
2023-04-18T12:00:02.166Z,9.45
2023-04-18T12:02:49.893Z,10.57
2023-04-18T12:05:31.933Z,10.85
2023-04-18T12:08:32.885Z,9.48
2023-04-18T12:11:00.526Z,9.13
2023-04-18T12:13:33.117Z,9.55
2023-04-18T12:16:03.032Z,8.43
2023-04-18T12:18:31.906Z,7.88
2023-04-18T12:21:05.279Z,7.70
2023-04-18T12:23:36.412Z,7.88
2023-04-18T12:26:12.410Z,9.85
2023-04-18T12:28:44.951Z,8.48
2023-04-18T12:31:13.448Z,8.55
2023-04-18T12:33:40.598Z,8.95
2023-04-18T12:36:11.841Z,10.50
2023-04-18T12:38:39.079Z,15.05
2023-04-18T12:41:06.652Z,9.52
2023-04-18T12:43:33.961Z,9.77
2023-04-18T12:46:02.709Z,11.27
2023-04-18T12:48:29.914Z,9.77
2023-04-18T12:50:57.074Z,10.48
2023-04-18T12:53:24.130Z,12.10
2023-04-18T12:55:51.674Z,10.77
2023-04-18T12:58:20.837Z,10.10
2023-04-18T13:00:48.398Z,10.48
2023-04-18T13:03:16.302Z,11.18
2023-04-18T13:05:44.036Z,9.57
2023-04-18T13:08:17.560Z,12.93
2023-04-18T13:10:46.364Z,10.35
2023-04-18T13:13:13.798Z,10.43
2023-04-18T13:15:41.477Z,9.57
2023-04-18T13:18:12.285Z,9.25
2023-04-18T13:20:39.693Z,12.55
2023-04-18T13:23:07.318Z,10.38
2023-04-18T13:25:34.538Z,10.68
2023-04-18T13:28:01.978Z,10.48
2023-04-18T13:30:29.230Z,10.68
2023-04-18T13:32:56.930Z,14.15
2023-04-18T13:35:24.034Z,9.93
2023-04-18T13:37:51.526Z,9.55
2023-04-18T13:40:18.788Z,9.98
2023-04-18T13:42:45.818Z,13.32
2023-04-18T13:45:12.867Z,9.45
2023-04-18T13:47:39.908Z,9.13
2023-04-18T13:50:08.132Z,11.20
2023-04-18T13:52:35.383Z,8.45
2023-04-18T13:55:02.487Z,10.75
2023-04-18T13:57:32.254Z,8.85
2023-04-18T13:59:59.520Z,8.90
2023-04-18T14:02:26.986Z,7.70
2023-04-18T14:04:55.082Z,8.90
2023-04-18T14:07:22.589Z,10.25
2023-04-18T14:09:50.493Z,11.70
2023-04-18T14:12:18.656Z,10.43
2023-04-18T14:14:45.962Z,9.15
2023-04-18T14:17:13.249Z,9.18
2023-04-18T14:19:40.466Z,9.32
2023-04-18T14:22:07.998Z,11.10
2023-04-18T14:24:38.671Z,9.82
2023-04-18T14:27:05.908Z,10.75
2023-04-18T14:29:33.163Z,13.52
2023-04-18T14:32:00.939Z,14.23
2023-04-18T14:34:31.138Z,11.02
2023-04-18T14:37:00.479Z,13.80
2023-04-18T14:39:27.467Z,11.20
2023-04-18T14:41:55.265Z,9.95
2023-04-18T14:44:22.582Z,9.52
2023-04-18T14:46:49.642Z,10.98
2023-04-18T14:49:16.837Z,12.95
2023-04-18T14:51:54.640Z,10.20
2023-04-18T14:54:21.518Z,11.68
2023-04-18T14:56:48.450Z,12.30
2023-04-18T14:59:16.572Z,11.40
2023-04-18T15:01:44.391Z,11.57
2023-04-18T15:04:11.610Z,11.00
2023-04-18T15:06:39.101Z,9.48
2023-04-18T15:09:06.928Z,9.70
2023-04-18T15:11:34.351Z,10.10
2023-04-18T15:14:01.675Z,10.75
2023-04-18T15:16:28.904Z,8.45
2023-04-18T15:18:55.915Z,9.63
2023-04-18T15:21:22.975Z,9.75
2023-04-18T15:23:49.855Z,11.30
2023-04-18T15:26:17.192Z,11.23
2023-04-18T15:28:45.398Z,10.27
2023-04-18T15:31:12.778Z,10.20
2023-04-18T15:33:39.702Z,9.35
2023-04-18T15:36:06.882Z,8.77
2023-04-18T15:38:36.542Z,8.60
2023-04-18T15:41:03.484Z,9.55
2023-04-18T15:43:30.529Z,8.55
2023-04-18T15:45:57.638Z,9.88
2023-04-18T15:48:24.802Z,11.32
2023-04-18T15:50:52.412Z,8.02
2023-04-18T15:53:19.560Z,10.90
2023-04-18T15:55:49.464Z,8.55
2023-04-18T15:58:16.482Z,11.63
2023-04-18T16:00:44.547Z,9.77
2023-04-18T16:03:12.328Z,10.48
2023-04-18T16:05:39.292Z,9.50
2023-04-18T16:08:06.370Z,12.27
2023-04-18T16:10:33.182Z,9.95
2023-04-18T16:13:02.852Z,11.20
2023-04-18T16:15:35.859Z,12.75
2023-04-18T16:18:03.249Z,11.48
2023-04-18T16:20:30.684Z,10.48
2023-04-18T16:22:57.832Z,11.23
2023-04-18T16:25:25.537Z,11.93
2023-04-18T16:27:53.237Z,10.80
2023-04-18T16:30:21.310Z,11.23
2023-04-18T16:32:48.875Z,11.43
2023-04-18T16:35:15.998Z,12.77
2023-04-18T16:37:43.227Z,12.45
2023-04-18T16:40:10.436Z,11.10
2023-04-18T16:42:37.655Z,11.38
2023-04-18T16:45:05.356Z,11.45
2023-04-18T16:47:32.420Z,9.50
2023-04-18T16:49:59.504Z,12.05
2023-04-18T16:52:27.529Z,11.35
2023-04-18T16:54:54.508Z,10.63
2023-04-18T16:57:24.182Z,10.40
2023-04-18T16:59:51.188Z,11.13
2023-04-18T17:02:18.659Z,12.15
2023-04-18T17:04:51.493Z,9.75
2023-04-18T17:07:18.901Z,10.57
2023-04-18T17:09:46.092Z,10.85
2023-04-18T17:12:13.565Z,11.55
2023-04-18T17:14:40.845Z,11.82
2023-04-18T17:17:08.128Z,9.65
2023-04-18T17:19:35.119Z,11.48
2023-04-18T17:22:02.991Z,11.93
2023-04-18T17:24:30.362Z,11.48
2023-04-18T17:26:58.175Z,13.13
2023-04-18T17:29:26.575Z,9.05
2023-04-18T17:31:53.775Z,14.00
2023-04-18T17:34:21.370Z,10.77
2023-04-18T17:36:48.643Z,12.15
2023-04-18T17:39:17.019Z,11.77
2023-04-18T17:41:46.429Z,10.50
2023-04-18T17:44:13.519Z,11.27
2023-04-18T17:46:41.086Z,11.52
2023-04-18T17:49:08.440Z,12.90
2023-04-18T17:51:35.420Z,11.93
2023-04-18T17:54:03.331Z,15.98
2023-04-18T17:56:31.732Z,15.43
2023-04-18T17:58:59.008Z,12.02
2023-04-18T18:01:28.976Z,13.93
2023-04-18T18:03:57.285Z,15.15
2023-04-18T18:06:24.617Z,17.77
2023-04-18T18:08:51.789Z,13.43
2023-04-18T18:11:19.039Z,16.38
2023-04-18T18:13:47.010Z,14.95
2023-04-18T18:16:14.379Z,14.48
2023-04-18T18:18:42.014Z,15.07
2023-04-18T18:21:09.416Z,18.08
2023-04-18T18:23:36.815Z,15.80
2023-04-18T18:26:04.505Z,17.77
2023-04-18T18:28:31.938Z,15.27
2023-04-18T18:30:59.339Z,13.25
2023-04-18T18:33:26.566Z,16.50
2023-04-18T18:35:54.628Z,15.60
2023-04-18T18:38:23.173Z,15.13
2023-04-18T18:40:50.354Z,14.35
2023-04-18T18:43:17.645Z,15.02
2023-04-18T18:45:45.071Z,16.50
2023-04-18T18:48:12.411Z,15.32
2023-04-18T18:50:42.069Z,14.30
2023-04-18T18:53:09.470Z,17.67
2023-04-18T18:55:36.676Z,18.67
2023-04-18T18:58:03.861Z,16.35
2023-04-18T19:00:31.791Z,13.85
2023-04-18T19:02:59.033Z,16.05
2023-04-18T19:05:27.114Z,13.18
2023-04-18T19:07:57.531Z,15.40
2023-04-18T19:10:24.859Z,17.92
2023-04-18T19:12:52.119Z,17.23
2023-04-18T19:15:19.828Z,15.38
2023-04-18T19:17:47.071Z,19.30
2023-04-18T19:20:15.154Z,15.02
2023-04-18T19:22:42.717Z,17.02
2023-04-18T19:25:10.318Z,17.48
2023-04-18T19:27:38.134Z,16.63
2023-04-18T19:30:06.238Z,16.33
2023-04-18T19:32:35.483Z,15.52
2023-04-18T19:35:10.141Z,18.00
2023-04-18T19:37:40.850Z,15.70
2023-04-18T19:40:14.664Z,16.25
2023-04-18T19:42:42.070Z,18.63
2023-04-18T19:45:12.297Z,15.20
2023-04-18T19:47:39.626Z,17.20
2023-04-18T19:50:08.368Z,16.83
2023-04-18T19:52:35.962Z,14.77
2023-04-18T19:55:09.672Z,16.63
2023-04-18T19:57:41.759Z,16.92
2023-04-18T20:00:11.429Z,14.68
2023-04-18T20:02:40.081Z,16.75
2023-04-18T20:05:09.800Z,18.20
2023-04-18T20:07:37.566Z,19.80
2023-04-18T20:10:05.643Z,19.42
2023-04-18T20:12:33.189Z,16.25
2023-04-18T20:15:01.456Z,16.75
2023-04-18T20:17:30.820Z,19.13
2023-04-18T20:19:59.750Z,15.40
2023-04-18T20:22:27.151Z,14.88
2023-04-18T20:24:57.483Z,16.45
2023-04-18T20:27:24.955Z,17.58
2023-04-18T20:29:52.546Z,18.23
2023-04-18T20:32:20.010Z,18.00
2023-04-18T20:34:47.342Z,18.33
2023-04-18T20:37:19.053Z,16.88
2023-04-18T20:39:46.643Z,16.10
2023-04-18T20:42:16.195Z,14.50
2023-04-18T20:44:44.936Z,15.30
2023-04-18T20:47:13.883Z,15.95
2023-04-18T20:49:45.849Z,16.33
2023-04-18T20:52:14.650Z,15.48
2023-04-18T20:54:42.972Z,17.17
2023-04-18T20:57:10.442Z,16.35
2023-04-18T20:59:37.785Z,15.05
2023-04-18T21:02:06.467Z,12.82
2023-04-18T21:04:34.817Z,17.17
2023-04-18T21:07:02.444Z,11.52
2023-04-18T21:09:31.366Z,13.63
2023-04-18T21:12:00.182Z,18.85
2023-04-18T21:14:27.505Z,13.07
2023-04-18T21:16:57.681Z,11.07
2023-04-18T21:19:25.576Z,15.55
2023-04-18T21:21:52.811Z,13.02
2023-04-18T21:24:20.371Z,15.40
2023-04-18T21:26:47.767Z,11.27
2023-04-18T21:29:15.047Z,11.60
2023-04-18T21:31:42.564Z,11.70
2023-04-18T21:34:11.445Z,12.88
2023-04-18T21:36:40.270Z,11.13
2023-04-18T21:39:08.653Z,11.32
2023-04-18T21:41:36.248Z,12.75
2023-04-18T21:44:03.670Z,13.98
2023-04-18T21:46:34.314Z,12.18
2023-04-18T21:49:01.251Z,14.13
2023-04-18T21:51:29.090Z,11.00
2023-04-18T21:53:56.174Z,11.15
2023-04-18T21:56:23.083Z,10.10
2023-04-18T21:58:53.490Z,10.57
2023-04-18T22:01:20.535Z,10.23
2023-04-18T22:03:47.687Z,9.77
2023-04-18T22:06:14.673Z,12.02
2023-04-18T22:08:42.247Z,11.73
2023-04-18T22:11:11.901Z,9.95
2023-04-18T22:13:38.759Z,11.85
2023-04-18T22:16:08.344Z,10.20
2023-04-18T22:18:37.745Z,8.18
2023-04-18T22:21:05.020Z,8.93
2023-04-18T22:23:32.261Z,10.88
2023-04-18T22:25:59.209Z,8.93
2023-04-18T22:28:28.022Z,7.97
2023-04-18T22:30:55.220Z,8.18
2023-04-18T22:33:22.712Z,8.38
2023-04-18T22:35:49.921Z,9.13
2023-04-18T22:38:17.236Z,8.52
2023-04-18T22:40:44.049Z,7.82
2023-04-18T22:43:11.989Z,7.75
2023-04-18T22:45:38.913Z,6.57
2023-04-18T22:48:11.630Z,7.70
2023-04-18T22:50:42.719Z,6.93
2023-04-18T22:53:11.159Z,7.90
2023-04-18T22:55:39.666Z,7.55
2023-04-18T22:58:07.201Z,8.45
2023-04-18T23:00:34.271Z,9.05
2023-04-18T23:03:01.302Z,8.68
2023-04-18T23:05:29.228Z,8.85
2023-04-18T23:07:58.267Z,9.27
2023-04-18T23:10:26.525Z,7.30
2023-04-18T23:12:53.799Z,8.38
2023-04-18T23:15:22.866Z,8.82
2023-04-18T23:17:54.974Z,7.68
2023-04-18T23:20:23.906Z,10.07
2023-04-18T23:22:51.892Z,10.80
2023-04-18T23:25:19.862Z,9.15
2023-04-18T23:27:47.115Z,9.82
2023-04-18T23:30:14.185Z,9.25
2023-04-18T23:32:41.133Z,9.95
2023-04-18T23:35:08.412Z,9.32
2023-04-18T23:37:35.230Z,12.25
2023-04-18T23:40:02.675Z,10.80
2023-04-18T23:42:29.518Z,10.35
2023-04-18T23:44:57.784Z,10.43
2023-04-18T23:47:24.612Z,13.23
2023-04-18T23:49:51.513Z,13.40
2023-04-18T23:52:23.483Z,8.57
2023-04-18T23:54:55.159Z,9.45
2023-04-18T23:57:22.000Z,11.88
2023-04-18T23:59:48.945Z,11.90
